createdAt,value
2019-05-15T00:00:38.490Z,11.17
2019-05-15T00:03:12.536Z,11.21
2019-05-15T00:05:49.674Z,11.14
2019-05-15T00:08:23.560Z,11.20
2019-05-15T00:10:58.675Z,11.22
2019-05-15T00:13:32.592Z,11.23
2019-05-15T00:16:08.347Z,11.15
2019-05-15T00:18:41.812Z,11.10
2019-05-15T00:21:17.845Z,11.10
2019-05-15T00:23:51.028Z,10.89
2019-05-15T00:26:24.767Z,10.84
2019-05-15T00:29:11.620Z,10.87
2019-05-15T00:31:33.966Z,10.89
2019-05-15T00:34:12.507Z,10.82
2019-05-15T00:36:43.099Z,10.75
2019-05-15T00:39:18.799Z,10.78
2019-05-15T00:41:54.736Z,10.70
2019-05-15T00:44:28.000Z,10.51
2019-05-15T00:47:01.887Z,10.51
2019-05-15T00:49:35.568Z,10.49
2019-05-15T00:52:12.096Z,10.49
2019-05-15T00:54:44.756Z,10.47
2019-05-15T00:57:19.281Z,10.39
2019-05-15T00:59:53.121Z,10.31
2019-05-15T01:02:28.625Z,10.29
2019-05-15T01:05:02.951Z,10.25
2019-05-15T01:07:38.954Z,10.25
2019-05-15T01:10:12.912Z,10.14
2019-05-15T01:12:48.658Z,10.17
2019-05-15T01:15:22.033Z,9.90
2019-05-15T01:17:55.810Z,9.93
2019-05-15T01:20:30.084Z,9.93
2019-05-15T01:23:03.802Z,10.02
2019-05-15T01:25:38.984Z,10.00
2019-05-15T01:28:13.083Z,9.91
2019-05-15T01:30:48.632Z,9.91
2019-05-15T01:33:23.128Z,9.83
2019-05-15T01:35:58.903Z,9.75
2019-05-15T01:38:32.234Z,9.84
2019-05-15T01:41:05.922Z,9.84
2019-05-15T01:43:39.612Z,9.62
2019-05-15T01:46:13.307Z,9.62
2019-05-15T01:48:49.129Z,9.70
2019-05-15T01:51:22.392Z,9.64
2019-05-15T01:53:58.259Z,9.63
2019-05-15T01:56:31.551Z,9.64
2019-05-15T01:59:05.309Z,9.63
2019-05-15T02:01:39.584Z,9.64
2019-05-15T02:04:13.263Z,9.59
2019-05-15T02:06:48.250Z,9.47
2019-05-15T02:09:22.774Z,9.46
2019-05-15T02:11:58.125Z,9.46
2019-05-15T02:14:31.981Z,9.49
2019-05-15T02:17:05.675Z,9.49
2019-05-15T02:19:39.387Z,9.42
2019-05-15T02:22:13.428Z,9.41
2019-05-15T02:24:48.227Z,9.39
2019-05-15T02:27:22.101Z,9.31
2019-05-15T02:30:13.084Z,9.24
2019-05-15T02:32:31.175Z,9.17
2019-05-15T02:35:05.438Z,9.17
2019-05-15T02:37:41.063Z,9.07
2019-05-15T02:40:15.199Z,9.07
2019-05-15T02:42:49.409Z,9.08
2019-05-15T02:45:23.339Z,9.08
2019-05-15T02:47:59.709Z,8.89
2019-05-15T02:50:32.450Z,8.93
2019-05-15T02:53:09.976Z,8.93
2019-05-15T02:55:42.154Z,8.95
2019-05-15T02:58:20.495Z,8.91
2019-05-15T03:00:53.524Z,8.82
2019-05-15T03:03:29.500Z,8.83
2019-05-15T03:06:02.080Z,8.72
2019-05-15T03:08:35.786Z,8.72
2019-05-15T03:11:09.958Z,8.69
2019-05-15T03:13:43.741Z,8.68
2019-05-15T03:16:19.351Z,8.66
2019-05-15T03:18:55.742Z,8.66
2019-05-15T03:21:29.544Z,8.57
2019-05-15T03:24:03.704Z,8.57
2019-05-15T03:26:39.495Z,8.58
2019-05-15T03:29:13.657Z,8.47
2019-05-15T03:32:00.809Z,8.51
2019-05-15T03:34:30.967Z,8.48
2019-05-15T03:37:03.246Z,8.48
2019-05-15T03:39:33.629Z,8.45
2019-05-15T03:42:09.572Z,8.45
2019-05-15T03:44:42.696Z,8.42
2019-05-15T03:47:19.202Z,8.42
2019-05-15T03:49:53.441Z,8.38
2019-05-15T03:52:29.443Z,8.37
2019-05-15T03:55:03.568Z,8.37
2019-05-15T03:57:40.041Z,8.28
2019-05-15T04:00:12.664Z,8.27
2019-05-15T04:02:48.876Z,8.31
2019-05-15T04:05:21.758Z,8.31
2019-05-15T04:07:55.444Z,8.29
2019-05-15T04:10:29.204Z,8.13
2019-05-15T04:13:02.907Z,8.14
2019-05-15T04:15:39.535Z,8.17
2019-05-15T04:18:11.981Z,8.17
2019-05-15T04:20:45.714Z,8.20
2019-05-15T04:23:22.417Z,8.25
2019-05-15T04:25:58.828Z,8.23
2019-05-15T04:28:31.575Z,8.23
2019-05-15T04:31:05.337Z,8.30
2019-05-15T04:33:40.169Z,8.12
2019-05-15T04:36:14.003Z,8.12
2019-05-15T04:38:49.779Z,8.30
2019-05-15T04:41:23.113Z,8.46
2019-05-15T04:43:59.569Z,8.56
2019-05-15T04:46:32.240Z,8.56
2019-05-15T04:49:09.043Z,8.45
2019-05-15T04:51:41.344Z,8.41
2019-05-15T04:54:15.041Z,8.41
2019-05-15T04:56:49.058Z,8.70
2019-05-15T04:59:22.787Z,8.81
2019-05-15T05:02:13.101Z,8.93
2019-05-15T05:04:31.881Z,8.93
2019-05-15T05:07:05.601Z,9.09
2019-05-15T05:09:39.331Z,8.70
2019-05-15T05:12:13.238Z,8.70
2019-05-15T05:14:48.405Z,9.06
2019-05-15T05:17:22.210Z,8.73
2019-05-15T05:19:58.231Z,8.87
2019-05-15T05:22:31.357Z,9.16
2019-05-15T05:25:08.143Z,9.27
2019-05-15T05:27:41.501Z,9.42
2019-05-15T05:30:15.215Z,9.29
2019-05-15T05:32:48.984Z,9.42
2019-05-15T05:35:22.682Z,9.57
2019-05-15T05:37:58.302Z,9.78
2019-05-15T05:40:31.892Z,9.78
2019-05-15T05:43:05.955Z,9.64
2019-05-15T05:45:39.672Z,9.81
2019-05-15T05:48:13.406Z,9.65
2019-05-15T05:50:49.664Z,9.96
2019-05-15T05:53:22.518Z,9.96
2019-05-15T05:55:58.042Z,10.01
2019-05-15T05:58:31.643Z,10.07
2019-05-15T06:01:05.344Z,10.10
2019-05-15T06:03:39.079Z,9.82
2019-05-15T06:06:13.466Z,9.82
2019-05-15T06:08:48.087Z,10.45
2019-05-15T06:11:21.980Z,10.45
2019-05-15T06:13:58.235Z,10.29
2019-05-15T06:16:31.087Z,10.44
2019-05-15T06:19:04.786Z,10.44
2019-05-15T06:21:52.481Z,10.66
2019-05-15T06:24:13.877Z,10.95
2019-05-15T06:26:48.162Z,11.01
2019-05-15T06:29:22.033Z,11.01
2019-05-15T06:31:55.731Z,10.90
2019-05-15T06:34:29.441Z,10.98
2019-05-15T06:37:03.132Z,10.97
2019-05-15T06:39:38.884Z,10.97
2019-05-15T06:42:12.221Z,11.11
2019-05-15T06:44:48.225Z,11.29
2019-05-15T06:47:21.317Z,11.42
2019-05-15T06:49:55.018Z,11.34
2019-05-15T06:52:28.719Z,11.70
2019-05-15T06:55:02.880Z,12.01
2019-05-15T06:57:36.581Z,12.20
2019-05-15T07:00:10.296Z,12.20
2019-05-15T07:02:44.008Z,12.34
2019-05-15T07:05:18.394Z,12.13
2019-05-15T07:07:52.199Z,12.13
2019-05-15T07:10:28.663Z,12.31
2019-05-15T07:13:01.321Z,12.33
2019-05-15T07:15:35.068Z,12.48
2019-05-15T07:18:08.877Z,12.60
2019-05-15T07:20:42.551Z,12.93
2019-05-15T07:23:18.561Z,12.93
2019-05-15T07:25:51.722Z,12.63
2019-05-15T07:28:25.523Z,12.83
2019-05-15T07:30:59.222Z,12.94
2019-05-15T07:33:39.534Z,13.00
2019-05-15T07:36:08.586Z,13.00
2019-05-15T07:38:42.297Z,13.01
2019-05-15T07:41:18.286Z,13.13
2019-05-15T07:43:51.401Z,13.13
2019-05-15T07:46:25.109Z,13.66
2019-05-15T07:48:58.806Z,13.66
2019-05-15T07:51:32.511Z,13.41
2019-05-15T07:54:08.937Z,13.48
2019-05-15T07:56:41.667Z,13.70
2019-05-15T07:59:15.385Z,13.86
2019-05-15T08:01:49.452Z,13.91
2019-05-15T08:04:29.491Z,13.91
2019-05-15T08:06:59.302Z,14.07
2019-05-15T08:09:33.111Z,14.02
2019-05-15T08:12:08.312Z,14.09
2019-05-15T08:14:42.176Z,14.09
2019-05-15T08:17:18.994Z,14.23
2019-05-15T08:19:51.276Z,14.13
2019-05-15T08:22:24.987Z,14.13
2019-05-15T08:24:59.142Z,14.56
2019-05-15T08:27:33.073Z,14.56
2019-05-15T08:30:08.950Z,14.64
2019-05-15T08:32:42.780Z,14.79
2019-05-15T08:35:18.909Z,14.68
2019-05-15T08:37:51.943Z,14.74
2019-05-15T08:40:25.644Z,14.69
2019-05-15T08:43:02.083Z,14.69
2019-05-15T08:45:34.800Z,14.62
2019-05-15T08:48:09.328Z,14.94
2019-05-15T08:50:43.278Z,15.08
2019-05-15T08:53:19.378Z,15.08
2019-05-15T08:55:52.621Z,14.98
2019-05-15T08:58:28.891Z,14.98
2019-05-15T09:01:01.805Z,15.36
2019-05-15T09:03:37.889Z,15.36
2019-05-15T09:06:10.942Z,15.40
2019-05-15T09:08:44.722Z,15.43
2019-05-15T09:11:19.196Z,15.77
2019-05-15T09:13:54.549Z,15.89
2019-05-15T09:16:28.515Z,15.94
2019-05-15T09:19:02.244Z,15.94
2019-05-15T09:21:38.548Z,15.74
2019-05-15T09:24:11.409Z,15.74
2019-05-15T09:26:45.116Z,15.93
2019-05-15T09:29:18.836Z,16.06
2019-05-15T09:31:52.716Z,16.28
2019-05-15T09:34:33.275Z,16.28
2019-05-15T09:37:01.873Z,16.55
2019-05-15T09:39:35.568Z,16.51
2019-05-15T09:42:09.277Z,16.56
2019-05-15T09:44:42.981Z,16.82
2019-05-15T09:47:18.850Z,16.82
2019-05-15T09:49:52.095Z,16.93
2019-05-15T09:52:25.814Z,16.93
2019-05-15T09:54:59.533Z,17.09
2019-05-15T09:57:33.233Z,17.35
2019-05-15T10:00:09.178Z,17.14
2019-05-15T10:02:43.006Z,17.29
2019-05-15T10:05:18.737Z,17.48
2019-05-15T10:07:52.123Z,17.48
2019-05-15T10:10:28.308Z,17.64
2019-05-15T10:13:01.217Z,17.76
2019-05-15T10:15:34.921Z,17.88
2019-05-15T10:18:09.961Z,17.88
2019-05-15T10:20:43.825Z,17.84
2019-05-15T10:23:19.674Z,18.20
2019-05-15T10:25:52.940Z,17.91
2019-05-15T10:28:29.250Z,18.10
2019-05-15T10:31:02.036Z,18.04
2019-05-15T10:33:35.744Z,18.04
2019-05-15T10:36:09.465Z,18.19
2019-05-15T10:38:43.187Z,18.23
2019-05-15T10:41:18.746Z,18.34
2019-05-15T10:43:56.372Z,18.44
2019-05-15T10:46:27.883Z,18.44
2019-05-15T10:49:01.596Z,18.47
2019-05-15T10:51:35.357Z,18.94
2019-05-15T10:54:09.059Z,18.70
2019-05-15T10:56:42.765Z,18.70
2019-05-15T10:59:18.293Z,18.67
2019-05-15T11:01:51.938Z,18.84
2019-05-15T11:04:25.637Z,18.95
2019-05-15T11:06:59.345Z,19.03
2019-05-15T11:09:33.272Z,19.03
2019-05-15T11:12:08.711Z,18.84
2019-05-15T11:14:42.568Z,19.13
2019-05-15T11:17:16.258Z,19.13
2019-05-15T11:19:50.111Z,19.03
2019-05-15T11:22:23.839Z,19.03
2019-05-15T11:24:59.404Z,19.21
2019-05-15T11:27:32.936Z,19.21
2019-05-15T11:30:09.001Z,19.17
2019-05-15T11:32:42.685Z,19.17
2019-05-15T11:35:18.736Z,18.87
2019-05-15T11:37:56.730Z,19.01
2019-05-15T11:40:28.415Z,19.01
2019-05-15T11:43:02.322Z,19.21
2019-05-15T11:45:38.336Z,19.14
2019-05-15T11:48:11.583Z,19.14
2019-05-15T11:50:45.373Z,19.30
2019-05-15T11:53:19.409Z,19.38
2019-05-15T11:55:53.234Z,19.34
2019-05-15T11:58:28.161Z,19.34
2019-05-15T12:01:02.037Z,19.26
2019-05-15T12:03:38.341Z,19.46
2019-05-15T12:06:18.569Z,19.46
2019-05-15T12:08:46.677Z,19.92
2019-05-15T12:11:31.965Z,19.92
2019-05-15T12:13:55.817Z,19.92
2019-05-15T12:16:29.616Z,20.25
2019-05-15T12:19:09.085Z,20.03
2019-05-15T12:21:39.553Z,19.69
2019-05-15T12:24:13.540Z,19.63
2019-05-15T12:26:48.929Z,19.57
2019-05-15T12:29:22.849Z,19.57
2019-05-15T12:31:58.892Z,19.64
2019-05-15T12:34:31.975Z,19.46
2019-05-15T12:37:05.664Z,19.46
2019-05-15T12:39:40.900Z,19.36
2019-05-15T13:00:22.606Z,20.27
2019-05-15T13:02:59.014Z,20.34
2019-05-15T13:05:32.605Z,20.35
2019-05-15T13:08:08.369Z,20.06
2019-05-15T13:10:41.872Z,20.28
2019-05-15T13:13:16.285Z,20.28
2019-05-15T13:15:49.992Z,20.21
2019-05-15T13:18:23.688Z,20.43
2019-05-15T13:20:59.609Z,21.21
2019-05-15T13:23:32.853Z,21.44
2019-05-15T13:26:21.519Z,21.44
2019-05-15T13:28:41.976Z,21.50
2019-05-15T13:31:15.681Z,21.27
2019-05-15T13:33:49.388Z,21.27
2019-05-15T13:36:23.095Z,21.05
2019-05-15T13:38:57.840Z,20.69
2019-05-15T13:41:31.784Z,20.69
2019-05-15T13:44:05.480Z,20.66
2019-05-15T13:46:39.187Z,20.87
2019-05-15T13:49:13.888Z,20.87
2019-05-15T13:51:48.795Z,21.30
2019-05-15T13:54:22.790Z,21.30
2019-05-15T13:56:58.244Z,21.19
2019-05-15T13:59:32.091Z,20.99
2019-05-15T14:02:08.348Z,20.99
2019-05-15T14:04:41.228Z,21.08
2019-05-15T14:07:14.961Z,21.35
2019-05-15T14:09:48.985Z,21.40
2019-05-15T14:12:22.730Z,21.40
2019-05-15T14:14:58.110Z,21.55
2019-05-15T14:17:31.907Z,21.62
2019-05-15T14:20:08.724Z,21.25
2019-05-15T14:22:41.777Z,21.84
2019-05-15T14:25:18.029Z,21.84
2019-05-15T14:27:50.878Z,22.05
2019-05-15T14:30:24.575Z,22.39
2019-05-15T14:32:59.635Z,22.57
2019-05-15T14:35:33.685Z,22.97
2019-05-15T14:38:10.479Z,22.59
2019-05-15T14:40:42.975Z,22.30
2019-05-15T14:43:18.531Z,22.27
2019-05-15T14:45:52.083Z,22.27
2019-05-15T14:48:27.972Z,22.18
2019-05-15T14:51:01.355Z,22.22
2019-05-15T14:53:35.051Z,22.24
2019-05-15T14:56:08.783Z,22.24
2019-05-15T14:58:42.829Z,22.49
2019-05-15T15:01:18.493Z,22.36
2019-05-15T15:03:51.962Z,22.29
2019-05-15T15:06:25.651Z,22.29
2019-05-15T15:08:59.800Z,22.27
2019-05-15T15:11:33.512Z,22.61
2019-05-15T15:14:08.674Z,22.61
2019-05-15T15:16:42.708Z,23.07
2019-05-15T15:19:18.538Z,23.07
2019-05-15T15:21:52.372Z,23.57
2019-05-15T15:24:26.076Z,24.12
2019-05-15T15:26:59.776Z,23.28
2019-05-15T15:29:33.502Z,23.28
2019-05-15T15:32:07.187Z,21.92
2019-05-15T15:34:40.852Z,21.62
2019-05-15T15:37:14.562Z,21.62
2019-05-15T15:39:48.313Z,21.36
2019-05-15T15:42:22.044Z,20.90
2019-05-15T15:44:57.962Z,20.07
2019-05-15T15:47:31.142Z,20.07
2019-05-15T15:50:05.180Z,19.97
2019-05-15T15:52:39.211Z,20.16
2019-05-15T15:55:13.301Z,20.31
2019-05-15T15:57:48.643Z,21.00
2019-05-15T16:00:22.586Z,21.52
2019-05-15T16:02:56.290Z,21.51
2019-05-15T16:05:30.007Z,20.42
2019-05-15T16:08:03.716Z,20.42
2019-05-15T16:10:38.044Z,20.03
2019-05-15T16:13:11.910Z,19.83
2019-05-15T16:15:45.802Z,19.40
2019-05-15T16:18:19.508Z,19.40
2019-05-15T16:20:53.242Z,19.49
2019-05-15T16:23:28.263Z,19.64
2019-05-15T16:26:02.353Z,19.64
2019-05-15T16:28:38.638Z,19.90
2019-05-15T16:31:11.468Z,19.90
2019-05-15T16:33:45.183Z,20.12
2019-05-15T16:36:18.915Z,20.46
2019-05-15T16:39:03.898Z,20.98
2019-05-15T16:41:29.009Z,20.98
2019-05-15T16:44:02.935Z,21.25
2019-05-15T16:46:38.894Z,21.12
2019-05-15T16:49:12.113Z,20.93
2019-05-15T16:51:45.886Z,20.93
2019-05-15T16:54:19.571Z,21.19
2019-05-15T16:56:53.370Z,21.19
2019-05-15T16:59:30.017Z,20.97
2019-05-15T17:02:03.515Z,21.10
2019-05-15T17:04:38.245Z,21.10
2019-05-15T17:07:12.183Z,20.75
2019-05-15T17:09:47.964Z,20.56
2019-05-15T17:12:21.316Z,20.56
2019-05-15T17:14:55.008Z,20.03
2019-05-15T17:17:28.720Z,20.03
2019-05-15T17:20:03.306Z,20.10
2019-05-15T17:22:38.092Z,20.33
2019-05-15T17:25:11.930Z,20.30
2019-05-15T17:27:45.705Z,20.31
2019-05-15T17:30:19.468Z,20.31
2019-05-15T17:32:53.470Z,20.57
2019-05-15T17:35:27.808Z,20.53
2019-05-15T17:38:01.619Z,20.58
2019-05-15T17:40:35.321Z,20.55
2019-05-15T17:43:09.506Z,20.22
2019-05-15T17:45:43.372Z,20.27
2019-05-15T17:48:19.369Z,20.09
2019-05-15T17:50:52.837Z,19.58
2019-05-15T17:53:28.682Z,19.58
2019-05-15T17:56:02.334Z,19.58
2019-05-15T17:58:38.062Z,18.83
2019-05-15T18:01:11.550Z,18.83
2019-05-15T18:03:45.254Z,18.72
2019-05-15T18:06:18.976Z,18.63
2019-05-15T18:08:52.697Z,18.63
2019-05-15T18:11:27.807Z,18.72
2019-05-15T18:14:01.742Z,18.70
2019-05-15T18:16:35.463Z,18.70
2019-05-15T18:19:09.346Z,18.66
2019-05-15T18:21:43.129Z,18.68
2019-05-15T18:24:18.466Z,18.59
2019-05-15T18:26:52.333Z,18.64
2019-05-15T18:29:26.116Z,18.72
2019-05-15T18:31:59.830Z,18.65
2019-05-15T18:34:33.522Z,18.65
2019-05-15T18:37:08.510Z,18.50
2019-05-15T18:39:42.434Z,18.50
2019-05-15T18:42:18.622Z,18.23
2019-05-15T18:44:51.747Z,18.20
2019-05-15T18:47:27.666Z,18.34
2019-05-15T18:50:06.070Z,18.18
2019-05-15T18:52:38.319Z,18.19
2019-05-15T18:55:11.741Z,17.88
2019-05-15T18:57:45.509Z,17.88
2019-05-15T19:00:19.227Z,17.89
2019-05-15T19:02:52.907Z,17.89
2019-05-15T19:05:28.146Z,17.89
2019-05-15T19:08:02.028Z,17.78
2019-05-15T19:10:35.791Z,17.52
2019-05-15T19:13:09.530Z,17.52
2019-05-15T19:15:43.629Z,17.39
2019-05-15T19:18:18.637Z,17.24
2019-05-15T19:20:52.540Z,17.38
2019-05-15T19:23:26.255Z,17.38
2019-05-15T19:25:59.975Z,17.24
2019-05-15T19:28:33.694Z,16.99
2019-05-15T19:31:08.945Z,16.99
2019-05-15T19:33:42.783Z,17.03
2019-05-15T19:36:18.268Z,16.90
2019-05-15T19:38:51.942Z,16.90
2019-05-15T19:41:25.676Z,16.78
2019-05-15T19:43:59.453Z,16.58
2019-05-15T19:46:33.185Z,16.58
2019-05-15T19:49:08.697Z,16.74
2019-05-15T19:51:42.341Z,16.83
2019-05-15T19:54:18.217Z,16.83
2019-05-15T19:56:51.570Z,16.88
2019-05-15T19:59:25.333Z,16.60
2019-05-15T20:01:59.059Z,16.56
2019-05-15T20:04:32.754Z,16.81
2019-05-15T20:07:08.027Z,16.77
2019-05-15T20:09:41.976Z,16.76
2019-05-15T20:12:15.723Z,16.76
2019-05-15T20:14:51.161Z,16.41
2019-05-15T20:17:24.845Z,16.25
2019-05-15T20:19:58.560Z,16.54
2019-05-15T20:22:32.273Z,16.42
2019-05-15T20:25:08.315Z,16.23
2019-05-15T20:27:41.438Z,16.48
2019-05-15T20:30:15.173Z,16.48
2019-05-15T20:32:48.885Z,16.48
2019-05-15T20:35:22.621Z,16.38
2019-05-15T20:37:58.167Z,16.09
2019-05-15T20:40:32.060Z,15.96
2019-05-15T20:43:07.979Z,15.96
2019-05-15T20:45:41.227Z,15.51
2019-05-15T20:48:14.949Z,15.63
2019-05-15T20:50:48.663Z,15.64
2019-05-15T20:53:22.501Z,15.64
2019-05-15T20:55:56.315Z,15.62
2019-05-15T20:58:30.104Z,15.69
2019-05-15T21:01:03.779Z,15.69
2019-05-15T21:03:37.505Z,15.64
2019-05-15T21:06:12.504Z,15.57
2019-05-15T21:08:48.587Z,15.55
2019-05-15T21:11:21.926Z,15.50
2019-05-15T21:13:58.023Z,15.50
2019-05-15T21:16:31.287Z,15.34
2019-05-15T21:19:05.018Z,15.31
2019-05-15T21:21:38.821Z,15.27
2019-05-15T21:24:12.491Z,15.18
2019-05-15T21:26:48.673Z,15.18
2019-05-15T21:29:21.654Z,15.11
2019-05-15T21:31:57.847Z,15.00
2019-05-15T21:34:36.983Z,14.95
2019-05-15T21:37:08.604Z,15.09
2019-05-15T21:39:41.642Z,15.03
2019-05-15T21:42:15.314Z,15.03
2019-05-15T21:44:49.068Z,14.70
2019-05-15T21:47:22.800Z,14.66
2019-05-15T21:49:56.496Z,14.66
2019-05-15T21:52:30.184Z,14.59
2019-05-15T21:55:05.166Z,14.62
2019-05-15T21:57:42.119Z,14.56
2019-05-15T22:00:18.041Z,14.56
2019-05-15T22:02:51.796Z,14.54
2019-05-15T22:05:25.524Z,14.64
2019-05-15T22:07:59.236Z,14.62
2019-05-15T22:10:33.016Z,14.55
2019-05-15T22:13:06.824Z,14.43
2019-05-15T22:15:40.648Z,14.43
2019-05-15T22:18:14.358Z,14.22
2019-05-15T22:20:48.162Z,14.30
2019-05-15T22:23:21.916Z,14.30
2019-05-15T22:25:55.624Z,14.38
2019-05-15T22:28:29.309Z,14.27
2019-05-15T22:31:03.098Z,14.08
2019-05-15T22:33:36.868Z,14.08
2019-05-15T22:36:10.848Z,14.05
2019-05-15T22:38:44.537Z,13.76
2019-05-15T22:41:19.224Z,13.79
2019-05-15T22:43:53.037Z,13.79
2019-05-15T22:46:28.853Z,13.59
2019-05-15T22:49:02.129Z,13.59
2019-05-15T22:51:38.061Z,13.59
2019-05-15T22:54:11.245Z,13.63
2019-05-15T22:56:44.933Z,13.63
2019-05-15T22:59:18.689Z,13.57
2019-05-15T23:01:52.377Z,13.37
2019-05-15T23:04:26.070Z,13.34
2019-05-15T23:06:59.762Z,13.34
2019-05-15T23:09:33.515Z,13.37
2019-05-15T23:12:11.316Z,13.06
2019-05-15T23:14:42.877Z,13.08
2019-05-15T23:17:16.581Z,13.08
2019-05-15T23:19:50.260Z,12.86
2019-05-15T23:22:24.017Z,12.89
2019-05-15T23:24:58.527Z,12.93
2019-05-15T23:27:32.458Z,12.80
2019-05-15T23:30:08.689Z,12.75
2019-05-15T23:32:41.929Z,12.63
2019-05-15T23:35:17.809Z,12.79
2019-05-15T23:37:51.017Z,12.76
2019-05-15T23:40:24.729Z,12.76
2019-05-15T23:42:58.417Z,12.74
2019-05-15T23:45:32.105Z,12.56
2019-05-15T23:48:05.867Z,12.56
2019-05-15T23:50:39.587Z,12.56
2019-05-15T23:53:16.247Z,12.65
2019-05-15T23:55:48.894Z,12.75
2019-05-15T23:58:22.586Z,12.75
